Time;durP1;ratioP1;P1;durP2;ratioP2;P2;SDS_P1;SDS_P2;PMS_P1;PMS_P2;Temp;Humidity;BMP_temperature;BMP_pressure;BME280_temperature;BME280_humidity;BME280_pressure;Samples;Min_cycle;Max_cycle;Signal;HPM_P1;HPM_P2
2023/03/05 00:00:52;;;;;;;4.35;2.35;;;;;;;;;;5057144;28;20111;-80
2023/03/05 00:03:18;;;;;;;6.40;2.30;;;;;;;;;;5057155;28;20516;-80
2023/03/05 00:05:44;;;;;;;2.88;2.13;;;;;;;;;;5052275;28;20032;-78
2023/03/05 00:08:10;;;;;;;6.93;2.50;;;;;;;;;;5055372;28;20024;-79
2023/03/05 00:10:36;;;;;;;4.82;2.55;;;;;;;;;;5050715;28;20097;-79
2023/03/05 00:13:03;;;;;;;4.90;2.00;;;;;;;;;;5051434;28;20595;-79
2023/03/05 00:15:29;;;;;;;3.67;2.05;;;;;;;;;;5053555;28;20052;-80
2023/03/05 00:17:55;;;;;;;4.03;2.35;;;;;;;;;;5055669;28;20524;-81
2023/03/05 00:20:22;;;;;;;2.75;2.17;;;;;;;;;;5053167;28;20651;-81
2023/03/05 00:22:48;;;;;;;5.10;2.60;;;;;;;;;;5059607;28;20435;-80
2023/03/05 00:25:14;;;;;;;7.00;2.42;;;;;;;;;;5056407;28;20066;-80
2023/03/05 00:27:40;;;;;;;4.78;2.42;;;;;;;;;;5047131;28;20124;-80
2023/03/05 00:30:07;;;;;;;9.00;2.28;;;;;;;;;;5060000;28;20139;-79
2023/03/05 00:32:35;;;;;;;5.20;2.60;;;;;;;;;;5053597;28;20104;-80
2023/03/05 00:35:01;;;;;;;4.93;2.55;;;;;;;;;;5049825;28;20033;-80
2023/03/05 00:37:27;;;;;;;6.70;2.50;;;;;;;;;;5050267;28;20509;-80
2023/03/05 00:39:53;;;;;;;6.95;2.60;;;;;;;;;;5056244;28;20033;-81
2023/03/05 00:42:19;;;;;;;9.23;4.40;;;;;;;;;;5057038;28;20020;-81
2023/03/05 00:44:46;;;;;;;4.75;2.42;;;;;;;;;;5051386;28;20116;-80
2023/03/05 00:47:12;;;;;;;7.22;2.30;;;;;;;;;;5055530;28;20017;-79
2023/03/05 00:49:38;;;;;;;5.13;2.88;;;;;;;;;;5056705;28;20451;-80
2023/03/05 00:52:04;;;;;;;3.58;2.33;;;;;;;;;;5047147;28;20036;-79
2023/03/05 00:54:31;;;;;;;4.03;2.58;;;;;;;;;;5056060;28;20566;-80
2023/03/05 00:56:57;;;;;;;5.57;2.60;;;;;;;;;;5054459;28;20556;-81
2023/03/05 00:59:23;;;;;;;7.40;3.00;;;;;;;;;;5054911;28;20095;-80
2023/03/05 01:01:49;;;;;;;5.75;2.88;;;;;;;;;;5046324;28;20017;-79
2023/03/05 01:04:15;;;;;;;6.97;2.63;;;;;;;;;;5048414;28;20043;-80
2023/03/05 01:06:43;;;;;;;6.90;3.10;;;;;;;;;;5049278;28;20033;-81
2023/03/05 01:09:10;;;;;;;8.05;2.92;;;;;;;;;;5047966;28;20021;-80
2023/03/05 01:11:36;;;;;;;6.68;3.00;;;;;;;;;;5057455;28;20021;-80
2023/03/05 01:14:02;;;;;;;6.65;3.33;;;;;;;;;;5047229;28;20056;-80
2023/03/05 01:16:28;;;;;;;8.80;3.20;;;;;;;;;;5051854;28;20078;-80
2023/03/05 01:18:54;;;;;;;4.28;2.70;;;;;;;;;;5050086;28;20045;-80
2023/03/05 01:21:21;;;;;;;7.85;3.33;;;;;;;;;;5050274;28;20024;-79
2023/03/05 01:23:47;;;;;;;10.40;3.42;;;;;;;;;;5055258;28;20094;-79
2023/03/05 01:26:13;;;;;;;8.25;2.95;;;;;;;;;;5051941;28;20549;-80
2023/03/05 01:28:39;;;;;;;9.82;3.13;;;;;;;;;;5048497;28;20140;-81
2023/03/05 01:31:10;;;;;;;8.13;3.45;;;;;;;;;;5064290;28;20025;-80
2023/03/05 01:33:36;;;;;;;4.65;2.80;;;;;;;;;;5053130;28;20077;-80
2023/03/05 01:36:06;;;;;;;9.98;4.07;;;;;;;;;;5054316;28;20132;-79
2023/03/05 01:38:32;;;;;;;7.28;3.30;;;;;;;;;;5056705;28;20055;-81
2023/03/05 01:40:58;;;;;;;6.43;3.13;;;;;;;;;;5052616;28;20037;-80
2023/03/05 01:43:28;;;;;;;5.28;3.75;;;;;;;;;;5050224;28;20115;-80
2023/03/05 01:46:29;;;;;;;10.07;3.85;;;;;;;;;;5053307;28;20036;-80
2023/03/05 01:48:59;;;;;;;9.35;3.30;;;;;;;;;;4979676;28;20037;-79
2023/03/05 01:51:26;;;;;;;12.50;3.33;;;;;;;;;;5044046;28;20051;-80
2023/03/05 01:53:53;;;;;;;6.05;3.70;;;;;;;;;;5055086;28;20118;-80
2023/03/05 01:56:19;;;;;;;12.98;4.50;;;;;;;;;;5047936;28;20081;-79
2023/03/05 01:58:46;;;;;;;9.98;4.10;;;;;;;;;;5050368;28;20047;-80
2023/03/05 02:01:12;;;;;;;12.07;4.55;;;;;;;;;;5060212;28;20607;-81
2023/03/05 02:03:38;;;;;;;10.27;4.28;;;;;;;;;;5046431;28;20341;-80
2023/03/05 02:06:05;;;;;;;12.70;4.22;;;;;;;;;;5056206;28;20033;-79
2023/03/05 02:08:31;;;;;;;8.10;3.60;;;;;;;;;;5051512;28;20061;-80
2023/03/05 02:10:59;;;;;;;9.82;4.05;;;;;;;;;;5053992;28;20154;-80
2023/03/05 02:13:30;;;;;;;14.20;3.80;;;;;;;;;;5052159;28;20853;-81
2023/03/05 02:15:58;;;;;;;9.02;3.92;;;;;;;;;;5051740;28;20028;-80
2023/03/05 02:18:24;;;;;;;8.10;3.90;;;;;;;;;;5050581;28;20482;-80
2023/03/05 02:20:56;;;;;;;12.85;4.72;;;;;;;;;;5051889;28;20032;-81
2023/03/05 02:23:27;;;;;;;10.52;4.30;;;;;;;;;;5042887;28;20102;-81
2023/03/05 02:25:53;;;;;;;9.43;3.95;;;;;;;;;;5057371;28;20029;-80
2023/03/05 02:28:23;;;;;;;7.25;4.18;;;;;;;;;;5052763;28;20116;-80
2023/03/05 02:30:50;;;;;;;11.50;3.60;;;;;;;;;;5051804;28;20223;-80
2023/03/05 02:33:17;;;;;;;9.02;3.85;;;;;;;;;;5059662;28;20053;-81
2023/03/05 02:35:45;;;;;;;8.98;3.90;;;;;;;;;;5048278;28;20103;-81
2023/03/05 02:38:11;;;;;;;12.55;4.30;;;;;;;;;;5048966;28;20108;-80
2023/03/05 02:40:38;;;;;;;10.57;4.30;;;;;;;;;;5048406;28;20107;-82
2023/03/05 02:43:04;;;;;;;10.07;4.28;;;;;;;;;;5048723;28;20369;-80
2023/03/05 02:45:30;;;;;;;12.45;4.28;;;;;;;;;;5045064;28;20547;-80
2023/03/05 02:47:56;;;;;;;11.52;5.30;;;;;;;;;;5049433;28;20112;-80
2023/03/05 02:50:22;;;;;;;9.50;4.68;;;;;;;;;;5046623;28;20127;-80
2023/03/05 02:52:49;;;;;;;12.13;5.38;;;;;;;;;;5045595;28;20024;-81
2023/03/05 02:55:15;;;;;;;9.27;4.32;;;;;;;;;;5046717;28;20110;-80
2023/03/05 02:57:41;;;;;;;15.60;4.70;;;;;;;;;;5041601;28;20025;-79
2023/03/05 03:00:08;;;;;;;10.48;4.30;;;;;;;;;;5047020;28;20043;-80
2023/03/05 03:02:34;;;;;;;12.60;4.75;;;;;;;;;;5045380;28;20025;-80
2023/03/05 03:05:01;;;;;;;9.70;4.78;;;;;;;;;;5049233;28;20048;-79
2023/03/05 03:07:27;;;;;;;8.95;5.10;;;;;;;;;;5057470;28;20025;-80
2023/03/05 03:09:53;;;;;;;9.43;4.18;;;;;;;;;;5053639;28;20024;-80
2023/03/05 03:12:19;;;;;;;8.73;3.70;;;;;;;;;;5052627;28;20423;-79
2023/03/05 03:14:45;;;;;;;6.40;3.67;;;;;;;;;;5057668;28;20119;-80
2023/03/05 03:17:13;;;;;;;10.80;3.67;;;;;;;;;;5051479;28;20120;-80
2023/03/05 03:19:40;;;;;;;4.85;2.95;;;;;;;;;;5051835;28;20139;-79
2023/03/05 03:22:06;;;;;;;6.28;3.58;;;;;;;;;;5058951;28;20094;-80
2023/03/05 03:24:33;;;;;;;9.88;4.43;;;;;;;;;;5053105;28;20037;-80
2023/03/05 03:27:00;;;;;;;7.40;4.22;;;;;;;;;;5051049;28;20054;-79
2023/03/05 03:29:26;;;;;;;6.57;3.92;;;;;;;;;;5051841;28;20028;-80
2023/03/05 03:31:52;;;;;;;17.85;4.72;;;;;;;;;;5050476;28;20702;-80
2023/03/05 03:34:19;;;;;;;9.50;5.85;;;;;;;;;;5053225;28;20035;-80
2023/03/05 03:36:46;;;;;;;13.73;5.18;;;;;;;;;;5051897;28;20031;-82
2023/03/05 03:39:13;;;;;;;9.40;4.40;;;;;;;;;;5053606;28;20016;-79
2023/03/05 03:41:44;;;;;;;19.45;7.22;;;;;;;;;;5050636;28;20050;-81
2023/03/05 03:44:10;;;;;;;9.63;4.85;;;;;;;;;;5055567;28;20380;-79
2023/03/05 03:46:40;;;;;;;13.38;4.57;;;;;;;;;;5060632;28;20119;-81
2023/03/05 03:49:07;;;;;;;13.63;5.63;;;;;;;;;;5054413;28;20035;-80
2023/03/05 03:51:33;;;;;;;7.50;4.38;;;;;;;;;;5057994;28;20052;-81
2023/03/05 03:54:00;;;;;;;11.45;6.55;;;;;;;;;;5059362;28;20056;-80
2023/03/05 03:56:26;;;;;;;12.77;4.72;;;;;;;;;;5059799;28;20139;-80
2023/03/05 03:58:53;;;;;;;10.85;4.65;;;;;;;;;;5056358;28;20028;-80
2023/03/05 04:01:20;;;;;;;9.05;4.72;;;;;;;;;;5053641;28;20036;-80
2023/03/05 04:03:46;;;;;;;11.45;4.95;;;;;;;;;;5058730;28;20111;-79
2023/03/05 04:06:13;;;;;;;11.02;4.20;;;;;;;;;;5052379;28;20128;-80
2023/03/05 04:08:39;;;;;;;8.45;4.75;;;;;;;;;;5054653;28;20024;-80
2023/03/05 04:11:05;;;;;;;17.50;5.38;;;;;;;;;;5052274;28;20033;-79
2023/03/05 04:13:32;;;;;;;14.07;5.30;;;;;;;;;;5055873;28;20107;-81
2023/03/05 04:15:58;;;;;;;9.70;5.30;;;;;;;;;;5055412;28;20050;-81
2023/03/05 04:18:24;;;;;;;8.02;4.03;;;;;;;;;;5060578;28;20481;-80
2023/03/05 04:20:50;;;;;;;9.43;3.08;;;;;;;;;;5046066;28;20515;-79
2023/03/05 04:23:17;;;;;;;5.70;3.08;;;;;;;;;;5049220;28;20033;-80
2023/03/05 04:25:43;;;;;;;5.28;3.15;;;;;;;;;;5048261;28;20024;-80
2023/03/05 04:28:10;;;;;;;6.55;3.00;;;;;;;;;;5066007;28;20017;-80
2023/03/05 04:30:36;;;;;;;4.50;2.85;;;;;;;;;;5059707;28;20389;-80
2023/03/05 04:33:02;;;;;;;6.13;3.15;;;;;;;;;;5052222;28;20021;-80
2023/03/05 04:35:28;;;;;;;4.63;2.95;;;;;;;;;;5065635;28;20036;-80
2023/03/05 04:37:54;;;;;;;6.32;3.45;;;;;;;;;;5053486;28;20389;-80
2023/03/05 04:40:21;;;;;;;7.82;3.45;;;;;;;;;;5056289;28;20128;-79
2023/03/05 04:42:47;;;;;;;8.70;3.75;;;;;;;;;;5069785;28;20107;-80
2023/03/05 04:45:14;;;;;;;9.15;4.35;;;;;;;;;;5058811;28;20493;-80
2023/03/05 04:47:40;;;;;;;6.90;3.72;;;;;;;;;;5052820;28;20052;-80
2023/03/05 04:50:06;;;;;;;12.57;4.55;;;;;;;;;;5061295;28;20067;-79
2023/03/05 04:52:32;;;;;;;12.30;4.05;;;;;;;;;;5056379;28;20083;-80
2023/03/05 04:54:59;;;;;;;8.60;4.25;;;;;;;;;;5054400;28;20666;-80
2023/03/05 04:57:25;;;;;;;7.20;3.85;;;;;;;;;;5062649;28;20446;-79
2023/03/05 04:59:51;;;;;;;9.30;4.38;;;;;;;;;;5056079;28;20028;-80
2023/03/05 05:02:17;;;;;;;10.23;4.45;;;;;;;;;;5054562;28;20636;-79
2023/03/05 05:04:44;;;;;;;7.22;4.38;;;;;;;;;;5061920;28;20036;-80
2023/03/05 05:07:11;;;;;;;12.57;4.28;;;;;;;;;;5058137;28;20024;-82
2023/03/05 05:09:40;;;;;;;10.65;4.15;;;;;;;;;;5055206;28;20025;-80
2023/03/05 05:12:06;;;;;;;9.38;3.70;;;;;;;;;;5053301;28;20021;-80
2023/03/05 05:14:33;;;;;;;8.77;3.78;;;;;;;;;;5055678;28;20143;-80
2023/03/05 05:17:03;;;;;;;14.95;4.90;;;;;;;;;;5059140;28;20032;-81
2023/03/05 05:19:30;;;;;;;11.15;3.83;;;;;;;;;;5050093;28;20070;-80
2023/03/05 05:21:56;;;;;;;7.60;4.13;;;;;;;;;;5055905;28;20029;-80
2023/03/05 05:24:22;;;;;;;11.65;5.32;;;;;;;;;;5055312;28;20033;-79
2023/03/05 05:26:48;;;;;;;10.35;4.13;;;;;;;;;;5054464;28;20033;-80
2023/03/05 05:29:15;;;;;;;10.82;4.43;;;;;;;;;;5050656;28;20020;-81
2023/03/05 05:31:41;;;;;;;9.73;4.70;;;;;;;;;;5053990;28;20029;-80
2023/03/05 05:34:07;;;;;;;11.25;3.47;;;;;;;;;;5051334;28;20598;-81
2023/03/05 05:36:33;;;;;;;13.45;4.13;;;;;;;;;;5052177;28;20119;-80
2023/03/05 05:38:59;;;;;;;10.57;4.70;;;;;;;;;;5054077;28;20052;-80
2023/03/05 05:41:26;;;;;;;9.02;4.55;;;;;;;;;;5050054;28;20067;-79
2023/03/05 05:43:52;;;;;;;17.10;5.35;;;;;;;;;;5050503;28;20028;-81
2023/03/05 05:46:19;;;;;;;12.25;5.65;;;;;;;;;;5052522;28;20115;-80
2023/03/05 05:48:45;;;;;;;14.40;5.18;;;;;;;;;;5056324;28;20024;-80
2023/03/05 05:51:13;;;;;;;13.30;4.28;;;;;;;;;;5053382;28;20024;-80
2023/03/05 05:53:41;;;;;;;10.95;4.13;;;;;;;;;;5050639;28;20036;-79
2023/03/05 05:56:08;;;;;;;9.60;3.17;;;;;;;;;;5049357;28;20115;-79
2023/03/05 05:58:35;;;;;;;13.43;4.20;;;;;;;;;;5047844;28;20569;-81
2023/03/05 06:01:01;;;;;;;10.77;3.47;;;;;;;;;;5056930;28;20122;-80
2023/03/05 06:03:28;;;;;;;12.05;3.13;;;;;;;;;;5045748;28;20056;-80
2023/03/05 06:05:54;;;;;;;8.43;3.28;;;;;;;;;;5049529;28;20051;-80
2023/03/05 06:08:20;;;;;;;9.93;3.88;;;;;;;;;;5054254;28;20021;-80
2023/03/05 06:10:53;;;;;;;10.75;3.33;;;;;;;;;;5050980;28;20048;-79
2023/03/05 06:13:19;;;;;;;9.73;3.50;;;;;;;;;;5058134;28;20016;-81
2023/03/05 06:15:45;;;;;;;9.77;3.30;;;;;;;;;;5057657;28;20671;-80
2023/03/05 06:18:14;;;;;;;7.32;3.83;;;;;;;;;;5055518;28;20050;-81
2023/03/05 06:20:40;;;;;;;7.53;3.50;;;;;;;;;;5050243;28;20021;-80
2023/03/05 06:23:06;;;;;;;6.53;2.92;;;;;;;;;;5053476;28;20033;-80
2023/03/05 06:25:32;;;;;;;6.28;3.50;;;;;;;;;;5055731;28;20032;-80
2023/03/05 06:27:59;;;;;;;9.02;3.15;;;;;;;;;;5056329;28;20108;-80
2023/03/05 06:30:25;;;;;;;6.95;3.17;;;;;;;;;;5044565;28;20115;-80
2023/03/05 06:32:51;;;;;;;4.55;2.80;;;;;;;;;;5054582;28;20118;-80
2023/03/05 06:35:18;;;;;;;8.82;3.20;;;;;;;;;;5051797;28;20198;-81
2023/03/05 06:37:44;;;;;;;4.90;2.60;;;;;;;;;;5054208;28;20027;-80
2023/03/05 06:40:11;;;;;;;6.32;3.60;;;;;;;;;;5052722;28;20021;-80
2023/03/05 06:42:37;;;;;;;8.95;3.20;;;;;;;;;;5051693;28;20032;-81
2023/03/05 06:45:03;;;;;;;8.48;3.13;;;;;;;;;;5048810;28;20123;-81
2023/03/05 06:47:30;;;;;;;7.05;2.90;;;;;;;;;;5045559;28;20029;-80
2023/03/05 06:49:56;;;;;;;5.10;2.95;;;;;;;;;;5054965;28;20024;-81
2023/03/05 06:52:22;;;;;;;6.57;3.63;;;;;;;;;;5056005;28;20516;-81
2023/03/05 06:54:48;;;;;;;10.43;3.90;;;;;;;;;;5055297;28;20233;-80
2023/03/05 06:57:15;;;;;;;10.13;3.83;;;;;;;;;;5046578;28;20021;-81
2023/03/05 06:59:41;;;;;;;9.10;3.25;;;;;;;;;;5052621;28;20035;-80
2023/03/05 07:02:09;;;;;;;6.03;3.30;;;;;;;;;;5056222;28;20103;-80
2023/03/05 07:04:35;;;;;;;4.60;2.60;;;;;;;;;;5048992;28;20578;-81
2023/03/05 07:07:02;;;;;;;6.03;2.92;;;;;;;;;;5050144;28;20115;-80
2023/03/05 07:09:29;;;;;;;6.50;3.03;;;;;;;;;;5052278;28;20028;-80
2023/03/05 07:11:55;;;;;;;3.95;2.50;;;;;;;;;;5056402;28;20221;-80
2023/03/05 07:14:22;;;;;;;5.53;2.55;;;;;;;;;;5053604;28;20055;-81
2023/03/05 07:16:49;;;;;;;6.65;3.60;;;;;;;;;;5059984;28;20112;-80
2023/03/05 07:19:15;;;;;;;6.20;3.55;;;;;;;;;;5056221;28;20515;-80
2023/03/05 07:21:41;;;;;;;9.82;3.67;;;;;;;;;;5058407;28;20111;-80
2023/03/05 07:24:08;;;;;;;6.93;3.30;;;;;;;;;;5052493;28;20112;-81
2023/03/05 07:26:34;;;;;;;7.82;4.13;;;;;;;;;;5053642;28;20059;-80
2023/03/05 07:29:01;;;;;;;7.05;3.42;;;;;;;;;;5056361;28;20094;-80
2023/03/05 07:31:30;;;;;;;7.55;3.38;;;;;;;;;;5056030;28;20398;-81
2023/03/05 07:33:57;;;;;;;6.60;2.65;;;;;;;;;;5056055;28;20029;-80
2023/03/05 07:36:23;;;;;;;6.07;2.50;;;;;;;;;;5056496;28;20052;-81
2023/03/05 07:38:49;;;;;;;4.13;2.50;;;;;;;;;;5051644;28;20108;-80
2023/03/05 07:41:22;;;;;;;8.45;3.17;;;;;;;;;;5060698;28;20048;-80
2023/03/05 07:43:49;;;;;;;9.00;2.85;;;;;;;;;;5058869;28;20103;-80
2023/03/05 07:46:16;;;;;;;6.50;2.67;;;;;;;;;;5057713;28;20043;-80
2023/03/05 07:48:42;;;;;;;4.85;2.38;;;;;;;;;;5061057;28;20100;-81
2023/03/05 07:51:11;;;;;;;5.47;2.33;;;;;;;;;;5054781;28;20025;-80
2023/03/05 07:53:37;;;;;;;3.92;2.30;;;;;;;;;;5053930;28;20599;-80
2023/03/05 07:56:03;;;;;;;6.15;2.70;;;;;;;;;;5063711;28;20062;-80
2023/03/05 07:58:29;;;;;;;4.60;2.58;;;;;;;;;;5057191;28;20111;-80
2023/03/05 08:00:55;;;;;;;4.68;2.35;;;;;;;;;;5054189;28;20020;-80
2023/03/05 08:03:22;;;;;;;9.13;3.13;;;;;;;;;;5053619;28;20322;-81
2023/03/05 08:05:48;;;;;;;3.30;2.20;;;;;;;;;;5056016;28;20126;-80
2023/03/05 08:08:15;;;;;;;4.18;2.35;;;;;;;;;;5056302;28;20028;-79
2023/03/05 08:13:45;;;;;;;5.75;2.92;;;;;;;;;;5055355;28;20047;-83
2023/03/05 08:16:13;;;;;;;3.30;1.95;;;;;;;;;;5051862;28;20051;-81
2023/03/05 08:18:39;;;;;;;3.80;2.17;;;;;;;;;;5053333;28;20033;-82
2023/03/05 08:21:06;;;;;;;4.28;2.03;;;;;;;;;;5056209;28;20484;-84
2023/03/05 08:23:34;;;;;;;3.75;1.88;;;;;;;;;;5049671;28;20028;-84
2023/03/05 08:26:01;;;;;;;5.05;2.15;;;;;;;;;;5051251;28;20041;-81
2023/03/05 08:28:27;;;;;;;3.15;1.83;;;;;;;;;;5050767;28;20068;-79
2023/03/05 08:30:53;;;;;;;11.77;2.25;;;;;;;;;;5058220;28;20044;-80
2023/03/05 08:33:19;;;;;;;4.63;2.17;;;;;;;;;;5047342;28;20112;-81
2023/03/05 08:35:46;;;;;;;5.90;2.00;;;;;;;;;;5056525;28;20219;-81
2023/03/05 08:38:48;;;;;;;;;;;;;;;;;;;;;
2023/03/05 08:41:15;;;;;;;7.90;2.53;;;;;;;;;;5045796;28;20037;-81
2023/03/05 08:43:42;;;;;;;4.28;2.25;;;;;;;;;;5056344;28;20028;-81
2023/03/05 08:46:09;;;;;;;8.27;3.50;;;;;;;;;;5048086;28;20036;-80
2023/03/05 08:48:35;;;;;;;4.90;2.65;;;;;;;;;;5045210;28;20078;-81
2023/03/05 08:51:09;;;;;;;5.97;2.95;;;;;;;;;;5046682;28;20028;-82
2023/03/05 08:53:51;;;;;;;;;;;;;;;;;;;;;
2023/03/05 09:02:51;;;;;;;3.47;1.90;;;;;;;;;;4994064;28;20122;-82
2023/03/05 09:05:18;;;;;;;4.10;1.77;;;;;;;;;;4998727;28;20042;-83
2023/03/05 09:08:07;;;;;;;2.78;1.90;;;;;;;;;;4981502;28;20045;-81
2023/03/05 09:10:37;;;;;;;4.03;1.80;;;;;;;;;;4992324;28;20076;-80
2023/03/05 09:13:03;;;;;;;3.63;2.15;;;;;;;;;;4984523;28;20033;-80
2023/03/05 09:15:29;;;;;;;2.97;2.20;;;;;;;;;;4977915;28;20523;-81
2023/03/05 09:18:07;;;;;;;5.18;2.45;;;;;;;;;;5035441;28;20151;-82
2023/03/05 09:20:39;;;;;;;10.35;3.45;;;;;;;;;;5053377;28;20021;-80
2023/03/05 09:23:05;;;;;;;2.97;1.80;;;;;;;;;;5047071;28;20097;-80
2023/03/05 09:25:31;;;;;;;5.38;2.20;;;;;;;;;;5044455;28;20049;-80
2023/03/05 09:27:57;;;;;;;6.32;3.35;;;;;;;;;;5044408;28;20021;-80
2023/03/05 09:30:24;;;;;;;6.50;2.40;;;;;;;;;;5051943;28;20455;-78
2023/03/05 09:32:50;;;;;;;4.95;2.55;;;;;;;;;;5048261;28;20428;-79
2023/03/05 09:35:19;;;;;;;5.90;2.60;;;;;;;;;;5050986;28;20028;-84
2023/03/05 09:37:45;;;;;;;8.55;2.88;;;;;;;;;;5044715;28;20025;-80
2023/03/05 09:40:15;;;;;;;4.90;2.65;;;;;;;;;;5045038;28;20036;-81
2023/03/05 09:42:47;;;;;;;6.13;2.75;;;;;;;;;;5052469;28;20081;-81
2023/03/05 09:45:28;;;;;;;6.75;2.92;;;;;;;;;;5045633;28;20076;-81
2023/03/05 09:47:54;;;;;;;3.80;2.72;;;;;;;;;;5046420;28;20495;-80
2023/03/05 09:50:38;;;;;;;8.45;3.10;;;;;;;;;;5047255;28;20035;-80
2023/03/05 09:53:07;;;;;;;4.82;3.10;;;;;;;;;;5050412;28;20051;-78
2023/03/05 09:55:39;;;;;;;5.70;3.08;;;;;;;;;;5047231;28;20074;-81
2023/03/05 09:58:13;;;;;;;4.55;3.25;;;;;;;;;;5048185;28;20197;-84
2023/03/05 10:00:50;;;;;;;7.00;3.75;;;;;;;;;;5049746;28;20040;-80
2023/03/05 10:03:25;;;;;;;5.20;3.22;;;;;;;;;;5051140;28;20047;-80
2023/03/05 10:06:06;;;;;;;5.72;3.55;;;;;;;;;;5049522;28;20041;-80
2023/03/05 10:08:52;;;;;;;9.98;4.15;;;;;;;;;;5044787;28;20508;-80
2023/03/05 10:11:40;;;;;;;6.35;3.47;;;;;;;;;;5042856;28;20033;-82
2023/03/05 10:14:07;;;;;;;5.10;2.97;;;;;;;;;;5045626;28;20053;-79
2023/03/05 10:16:52;;;;;;;6.00;3.03;;;;;;;;;;5052946;28;20062;-81
2023/03/05 10:19:37;;;;;;;5.35;2.72;;;;;;;;;;5050230;28;20025;-80
2023/03/05 10:22:07;;;;;;;4.13;2.42;;;;;;;;;;5052024;28;20497;-79
2023/03/05 10:24:33;;;;;;;5.55;2.90;;;;;;;;;;5052221;28;20024;-81
2023/03/05 10:27:07;;;;;;;4.35;2.67;;;;;;;;;;5051158;28;20029;-80
2023/03/05 10:29:34;;;;;;;5.55;2.90;;;;;;;;;;5054175;28;20675;-79
2023/03/05 10:32:11;;;;;;;7.15;2.47;;;;;;;;;;5049922;28;20123;-80
2023/03/05 10:34:53;;;;;;;6.75;3.03;;;;;;;;;;5051739;28;20028;-80
2023/03/05 10:37:27;;;;;;;8.38;2.58;;;;;;;;;;5049050;28;20071;-80
2023/03/05 10:40:12;;;;;;;5.25;2.90;;;;;;;;;;5055630;28;20389;-80
2023/03/05 10:42:47;;;;;;;7.15;2.90;;;;;;;;;;5054761;28;20117;-82
2023/03/05 10:45:16;;;;;;;7.15;2.40;;;;;;;;;;5049906;28;20536;-80
2023/03/05 10:47:46;;;;;;;3.80;2.33;;;;;;;;;;5061920;28;20020;-81
2023/03/05 10:50:18;;;;;;;7.28;3.10;;;;;;;;;;5055349;28;20070;-80
2023/03/05 10:52:47;;;;;;;3.05;2.25;;;;;;;;;;5053147;28;20068;-81
2023/03/05 10:55:14;;;;;;;3.75;2.60;;;;;;;;;;5061160;28;20073;-81
2023/03/05 10:57:43;;;;;;;5.45;2.65;;;;;;;;;;5049752;28;20116;-80
2023/03/05 11:00:15;;;;;;;5.78;3.38;;;;;;;;;;5052610;28;20118;-81
2023/03/05 11:03:01;;;;;;;6.57;3.03;;;;;;;;;;5057001;28;20631;-81
2023/03/05 11:05:38;;;;;;;6.22;2.50;;;;;;;;;;5053118;28;20411;-82
2023/03/05 11:08:22;;;;;;;4.28;3.10;;;;;;;;;;5053878;28;20069;-80
2023/03/05 11:11:02;;;;;;;3.88;2.80;;;;;;;;;;5055126;28;20103;-80
2023/03/05 11:13:28;;;;;;;4.00;2.67;;;;;;;;;;5045792;28;20025;-80
2023/03/05 11:16:05;;;;;;;4.53;2.38;;;;;;;;;;5051870;28;20105;-80
2023/03/05 11:18:33;;;;;;;5.28;2.58;;;;;;;;;;5053210;28;20491;-80
2023/03/05 11:21:18;;;;;;;5.97;2.53;;;;;;;;;;5052561;28;20071;-80
2023/03/05 11:24:05;;;;;;;6.25;2.58;;;;;;;;;;5063321;28;20025;-80
2023/03/05 11:26:31;;;;;;;5.53;2.75;;;;;;;;;;5052159;28;20041;-80
2023/03/05 11:28:59;;;;;;;6.32;2.63;;;;;;;;;;5049133;28;20064;-80
2023/03/05 11:31:26;;;;;;;3.88;2.70;;;;;;;;;;5048728;28;20028;-81
2023/03/05 11:34:02;;;;;;;4.18;2.55;;;;;;;;;;5052479;28;20547;-80
2023/03/05 11:36:35;;;;;;;2.80;2.30;;;;;;;;;;5054634;28;20080;-82
2023/03/05 11:39:07;;;;;;;3.70;2.25;;;;;;;;;;5055152;28;20984;-81
2023/03/05 11:41:36;;;;;;;4.43;2.30;;;;;;;;;;5055156;28;20036;-81
2023/03/05 11:44:04;;;;;;;6.40;2.70;;;;;;;;;;5061436;28;20076;-80
2023/03/05 11:46:36;;;;;;;5.32;2.80;;;;;;;;;;5054807;28;20035;-81
2023/03/05 11:49:03;;;;;;;8.82;3.05;;;;;;;;;;5048930;28;20340;-80
2023/03/05 11:51:41;;;;;;;5.00;2.90;;;;;;;;;;5055656;28;20124;-81
2023/03/05 11:54:08;;;;;;;5.15;3.13;;;;;;;;;;5045691;28;20036;-81
2023/03/05 11:56:38;;;;;;;6.50;2.80;;;;;;;;;;5062572;28;20060;-80
2023/03/05 11:59:13;;;;;;;3.67;2.47;;;;;;;;;;5046128;28;20535;-83
2023/03/05 12:01:45;;;;;;;4.45;2.47;;;;;;;;;;5066462;28;20106;-81
2023/03/05 12:04:11;;;;;;;;;;;;;;;;;;5044881;28;20044;-80
2023/03/05 12:06:46;;;;;;;4.30;2.63;;;;;;;;;;5053310;28;19967;-79
2023/03/05 12:09:42;;;;;;;5.40;2.70;;;;;;;;;;5051667;28;20029;-82
2023/03/05 12:12:12;;;;;;;4.10;2.72;;;;;;;;;;5050158;28;20040;-80
2023/03/05 12:14:48;;;;;;;5.43;2.50;;;;;;;;;;5052390;28;20139;-81
2023/03/05 12:17:31;;;;;;;;;;;;;;;;;;;;;
2023/03/05 12:20:03;;;;;;;4.30;2.95;;;;;;;;;;5053589;28;20046;-81
2023/03/05 12:22:36;;;;;;;5.82;2.65;;;;;;;;;;5062963;28;20535;-81
2023/03/05 12:25:23;;;;;;;4.90;2.67;;;;;;;;;;5070382;28;20032;-80
2023/03/05 12:27:49;;;;;;;4.93;2.75;;;;;;;;;;5054548;28;20031;-79
2023/03/05 12:30:31;;;;;;;6.28;2.80;;;;;;;;;;5051092;28;20096;-80
2023/03/05 12:32:57;;;;;;;5.20;3.00;;;;;;;;;;5051539;28;20036;-80
2023/03/05 12:35:25;;;;;;;5.82;2.55;;;;;;;;;;5073437;28;20042;-81
2023/03/05 12:37:56;;;;;;;3.80;2.50;;;;;;;;;;5052599;28;20033;-80
2023/03/05 12:43:33;;;;;;;8.02;2.80;;;;;;;;;;5061824;28;20072;-82
2023/03/05 12:46:40;;;;;;;4.10;2.60;;;;;;;;;;5067961;28;20040;-80
2023/03/05 12:55:32;;;;;;;6.68;2.75;;;;;;;;;;5042950;28;20036;-81
2023/03/05 12:58:20;;;;;;;7.50;2.90;;;;;;;;;;5033371;28;20458;-78
2023/03/05 13:00:49;;;;;;;6.80;3.10;;;;;;;;;;5061618;28;20032;-78
2023/03/05 13:06:32;;;;;;;8.05;3.08;;;;;;;;;;5042210;28;20044;-77
2023/03/05 13:22:49;;;;;;;;;;;;;;;;;;;;;
2023/03/05 13:25:28;;;;;;;3.85;2.20;;;;;;;;;;4969731;28;20049;-88
2023/03/05 13:28:15;;;;;;;6.88;2.85;;;;;;;;;;4984241;28;20123;-87
2023/03/05 13:31:06;;;;;;;3.85;3.00;;;;;;;;;;5022113;28;20631;-89
2023/03/05 13:33:38;;;;;;;5.40;2.58;;;;;;;;;;5030155;28;20397;-86
2023/03/05 13:36:10;;;;;;;4.03;2.80;;;;;;;;;;5060559;28;20037;-87
2023/03/05 13:38:43;;;;;;;3.70;2.80;;;;;;;;;;5062298;28;20485;-88
2023/03/05 13:41:51;;;;;;;4.28;2.40;;;;;;;;;;5059088;28;20059;-86
2023/03/05 13:48:10;;;;;;;;;;;;;;;;;;;;;
2023/03/05 13:50:39;;;;;;;4.78;2.58;;;;;;;;;;5071841;28;20036;-83
2023/03/05 13:53:16;;;;;;;4.68;2.80;;;;;;;;;;5054825;28;20715;-86
2023/03/05 15:15:04;;;;;;;8.88;3.90;;;;;;;;;;4914349;29;20083;-84
2023/03/05 16:01:25;;;;;;;6.50;2.92;;;;;;;;;;5080920;23;20087;-83
2023/03/05 16:03:51;;;;;;;6.43;3.25;;;;;;;;;;5055687;28;20312;-84
2023/03/05 16:06:21;;;;;;;5.35;3.42;;;;;;;;;;5044214;28;20033;-88
2023/03/05 16:08:48;;;;;;;7.22;4.20;;;;;;;;;;5044164;28;20024;-86
2023/03/05 16:14:26;;;;;;;;;;;;;;;;;;5057635;28;20406;-91
2023/03/05 16:16:56;;;;;;;6.75;3.55;;;;;;;;;;5041358;28;20352;-88
2023/03/05 16:19:23;;;;;;;10.68;4.55;;;;;;;;;;5036408;28;20029;-92
2023/03/05 16:21:50;;;;;;;7.70;4.22;;;;;;;;;;5039583;28;20025;-85
2023/03/05 16:24:16;;;;;;;9.45;3.72;;;;;;;;;;5042038;28;20424;-88
2023/03/05 16:26:42;;;;;;;9.82;3.72;;;;;;;;;;5038589;28;20049;-85
2023/03/05 16:29:09;;;;;;;7.00;3.28;;;;;;;;;;5043127;28;20043;-87
2023/03/05 16:31:37;;;;;;;10.27;6.38;;;;;;;;;;5046867;28;20185;-87
2023/03/05 16:34:03;;;;;;;7.28;4.10;;;;;;;;;;5039391;28;20036;-86
2023/03/05 16:36:30;;;;;;;10.77;4.57;;;;;;;;;;5040865;28;20528;-89
2023/03/05 16:38:59;;;;;;;10.95;4.13;;;;;;;;;;5042182;28;20020;-85
2023/03/05 16:41:26;;;;;;;11.68;4.63;;;;;;;;;;5044332;28;20172;-86
2023/03/05 16:43:55;;;;;;;9.15;4.15;;;;;;;;;;5037537;28;20035;-86
2023/03/05 16:46:22;;;;;;;8.63;3.88;;;;;;;;;;5037543;28;20067;-86
2023/03/05 16:48:48;;;;;;;6.95;4.07;;;;;;;;;;5034571;28;20027;-87
2023/03/05 16:51:14;;;;;;;7.95;3.85;;;;;;;;;;5032688;28;20129;-86
2023/03/05 16:53:41;;;;;;;8.35;4.13;;;;;;;;;;5032625;28;20041;-86
2023/03/05 16:56:08;;;;;;;17.88;5.70;;;;;;;;;;5034040;28;20490;-87
2023/03/05 16:58:39;;;;;;;6.95;3.95;;;;;;;;;;5031355;28;20021;-87
2023/03/05 17:01:22;;;;;;;8.15;4.50;;;;;;;;;;5033519;28;20325;-85
2023/03/05 17:06:35;;;;;;;9.40;4.82;;;;;;;;;;5042642;28;20384;-86
2023/03/05 17:12:02;;;;;;;8.20;4.10;;;;;;;;;;5104469;23;20067;-80
2023/03/05 17:14:28;;;;;;;9.95;4.20;;;;;;;;;;5062017;28;20111;-79
2023/03/05 17:16:55;;;;;;;7.25;4.68;;;;;;;;;;5067860;28;20050;-80
2023/03/05 17:19:24;;;;;;;9.05;4.28;;;;;;;;;;5086920;28;20052;-78
2023/03/05 17:21:51;;;;;;;15.20;4.97;;;;;;;;;;5071786;28;20565;-78
2023/03/05 17:24:18;;;;;;;8.07;4.53;;;;;;;;;;5074722;28;20071;-79
2023/03/05 17:26:54;;;;;;;7.00;3.63;;;;;;;;;;5105575;28;20027;-79
2023/03/05 17:29:24;;;;;;;6.82;3.88;;;;;;;;;;5098191;28;20411;-78
2023/03/05 17:31:54;;;;;;;8.68;4.32;;;;;;;;;;5094641;28;20067;-77
2023/03/05 17:34:21;;;;;;;14.93;4.82;;;;;;;;;;5082959;28;20046;-77
2023/03/05 17:36:49;;;;;;;8.07;4.03;;;;;;;;;;5090062;28;20060;-77
2023/03/05 17:39:17;;;;;;;11.73;4.25;;;;;;;;;;5097363;28;20012;-78
2023/03/05 17:41:44;;;;;;;10.73;5.70;;;;;;;;;;5096609;28;20081;-76
2023/03/05 17:44:10;;;;;;;11.02;4.60;;;;;;;;;;5094227;28;20448;-78
2023/03/05 17:46:37;;;;;;;10.32;4.00;;;;;;;;;;5075431;28;20107;-79
2023/03/05 17:49:03;;;;;;;13.02;5.75;;;;;;;;;;5082816;28;20019;-79